createdAt,value
2023-05-12T00:00:03.244Z,85.00
2023-05-12T00:01:02.845Z,85.00
2023-05-12T00:02:02.681Z,84.00
2023-05-12T00:03:02.878Z,84.00
2023-05-12T00:04:03.036Z,84.00
2023-05-12T00:05:03.058Z,84.00
2023-05-12T00:06:03.585Z,84.00
2023-05-12T00:07:02.534Z,84.00
2023-05-12T00:08:03.367Z,84.00
2023-05-12T00:09:03.388Z,84.00
2023-05-12T00:10:03.602Z,84.00
2023-05-12T00:11:03.157Z,84.00
2023-05-12T00:12:03.350Z,84.00
2023-05-12T00:13:02.905Z,84.00
2023-05-12T00:14:03.056Z,84.00
2023-05-12T00:15:02.740Z,84.00
2023-05-12T00:16:02.495Z,84.00
2023-05-12T00:17:02.772Z,84.00
2023-05-12T00:18:02.661Z,84.00
2023-05-12T00:19:02.443Z,84.00
2023-05-12T00:20:03.366Z,84.00
2023-05-12T00:21:02.610Z,84.00
2023-05-12T00:22:02.570Z,84.00
2023-05-12T00:23:02.900Z,84.00
2023-05-12T00:24:03.216Z,84.00
2023-05-12T00:25:02.766Z,84.00
2023-05-12T00:26:02.724Z,84.00
2023-05-12T00:27:03.360Z,84.00
2023-05-12T00:28:03.296Z,84.00
2023-05-12T00:29:03.369Z,84.00
2023-05-12T00:30:03.194Z,84.00
2023-05-12T00:31:03.188Z,84.00
2023-05-12T00:32:04.029Z,84.00
2023-05-12T00:33:02.887Z,84.00
2023-05-12T00:34:02.768Z,84.00
2023-05-12T00:35:02.502Z,84.00
2023-05-12T00:36:03.027Z,83.00
2023-05-12T00:37:02.746Z,83.00
2023-05-12T00:38:03.324Z,83.00
2023-05-12T00:39:03.672Z,83.00
2023-05-12T00:40:03.663Z,83.00
2023-05-12T00:41:03.138Z,83.00
2023-05-12T00:42:03.448Z,83.00
2023-05-12T00:43:03.085Z,84.00
2023-05-12T00:44:02.839Z,84.00
2023-05-12T00:45:03.073Z,84.00
2023-05-12T00:46:02.778Z,83.00
2023-05-12T00:47:02.735Z,83.00
2023-05-12T00:48:03.363Z,84.00
2023-05-12T00:49:03.357Z,83.00
2023-05-12T00:50:03.542Z,84.00
2023-05-12T00:51:03.512Z,84.00
2023-05-12T00:52:03.450Z,84.00
2023-05-12T00:53:03.018Z,84.00
2023-05-12T00:54:02.977Z,84.00
2023-05-12T00:55:04.143Z,84.00
2023-05-12T00:56:03.554Z,84.00
2023-05-12T00:57:03.615Z,84.00
2023-05-12T00:58:03.406Z,84.00
2023-05-12T00:59:03.040Z,84.00
2023-05-12T01:00:03.126Z,84.00
2023-05-12T01:01:03.084Z,84.00
2023-05-12T01:02:02.859Z,84.00
2023-05-12T01:03:02.809Z,83.00
2023-05-12T01:04:02.633Z,83.00
2023-05-12T01:05:02.429Z,83.00
2023-05-12T01:06:02.986Z,83.00
2023-05-12T01:07:02.305Z,83.00
2023-05-12T01:08:03.149Z,83.00
2023-05-12T01:09:03.373Z,83.00
2023-05-12T01:10:02.957Z,83.00
2023-05-12T01:11:03.207Z,83.00
2023-05-12T01:12:03.231Z,83.00
2023-05-12T01:13:02.742Z,84.00
2023-05-12T01:14:02.697Z,83.00
2023-05-12T01:15:02.527Z,83.00
2023-05-12T01:16:02.897Z,83.00
2023-05-12T01:17:02.712Z,83.00
2023-05-12T01:18:03.104Z,83.00
2023-05-12T01:19:03.154Z,83.00
2023-05-12T01:20:03.321Z,83.00
2023-05-12T01:21:03.017Z,83.00
2023-05-12T01:22:03.655Z,83.00
2023-05-12T01:23:03.423Z,83.00
2023-05-12T01:24:03.708Z,83.00
2023-05-12T01:25:02.955Z,83.00
2023-05-12T01:26:03.246Z,84.00
2023-05-12T01:27:03.176Z,84.00
2023-05-12T01:28:03.839Z,84.00
2023-05-12T01:29:03.414Z,84.00
2023-05-12T01:30:03.392Z,84.00
2023-05-12T01:31:04.002Z,83.00
2023-05-12T01:32:03.115Z,84.00
2023-05-12T01:33:02.983Z,84.00
2023-05-12T01:34:02.738Z,84.00
2023-05-12T01:35:02.570Z,84.00
2023-05-12T01:36:03.014Z,84.00
2023-05-12T01:37:02.519Z,84.00
2023-05-12T01:38:03.450Z,84.00
2023-05-12T01:39:03.194Z,84.00
2023-05-12T01:40:03.018Z,84.00
2023-05-12T01:41:03.033Z,84.00
2023-05-12T01:42:02.863Z,84.00
2023-05-12T01:43:02.584Z,84.00
2023-05-12T01:44:03.385Z,84.00
2023-05-12T01:45:02.934Z,84.00
2023-05-12T01:46:03.345Z,84.00
2023-05-12T01:47:02.898Z,84.00
2023-05-12T01:48:03.630Z,83.00
2023-05-12T01:49:03.372Z,83.00
2023-05-12T01:50:03.389Z,83.00
2023-05-12T01:51:03.409Z,83.00
2023-05-12T01:52:04.187Z,83.00
2023-05-12T01:53:03.055Z,84.00
2023-05-12T01:54:03.138Z,83.00
2023-05-12T01:55:02.528Z,83.00
2023-05-12T01:56:03.064Z,84.00
2023-05-12T01:57:02.737Z,84.00
2023-05-12T01:58:03.111Z,84.00
2023-05-12T01:59:03.174Z,85.00
2023-05-12T02:00:03.306Z,84.00
2023-05-12T02:01:03.070Z,84.00
2023-05-12T02:02:03.514Z,84.00
2023-05-12T02:03:02.660Z,85.00
2023-05-12T02:04:02.457Z,85.00
2023-05-12T02:05:02.829Z,85.00
2023-05-12T02:06:02.641Z,84.00
2023-05-12T02:07:02.555Z,85.00
2023-05-12T02:08:03.031Z,85.00
2023-05-12T02:09:02.754Z,84.00
2023-05-12T02:10:02.845Z,85.00
2023-05-12T02:11:02.913Z,85.00
2023-05-12T02:12:03.130Z,85.00
2023-05-12T02:13:03.042Z,85.00
2023-05-12T02:14:03.520Z,85.00
2023-05-12T02:15:03.442Z,85.00
2023-05-12T02:16:03.193Z,84.00
2023-05-12T02:17:03.604Z,84.00
2023-05-12T02:18:02.821Z,84.00
2023-05-12T02:19:03.388Z,85.00
2023-05-12T02:20:03.691Z,85.00
2023-05-12T02:21:03.228Z,85.00
2023-05-12T02:22:03.458Z,85.00
2023-05-12T02:23:02.156Z,85.00
2023-05-12T02:24:02.725Z,85.00
2023-05-12T02:25:02.521Z,85.00
2023-05-12T02:26:02.479Z,85.00
2023-05-12T02:27:02.414Z,85.00
2023-05-12T02:28:02.550Z,85.00
2023-05-12T02:29:02.411Z,85.00
2023-05-12T02:30:02.338Z,84.00
2023-05-12T02:31:02.918Z,84.00
2023-05-12T02:32:02.950Z,84.00
2023-05-12T02:33:03.357Z,83.00
2023-05-12T02:34:06.344Z,83.00
2023-05-12T02:35:02.993Z,83.00
2023-05-12T02:36:03.011Z,83.00
2023-05-12T02:37:02.896Z,84.00
2023-05-12T02:38:02.940Z,84.00
2023-05-12T02:39:03.248Z,84.00
2023-05-12T02:40:02.855Z,84.00
2023-05-12T02:41:02.980Z,84.00
2023-05-12T02:42:03.093Z,85.00
2023-05-12T02:43:02.837Z,85.00
2023-05-12T02:44:02.861Z,85.00
2023-05-12T02:45:02.848Z,86.00
2023-05-12T02:46:02.976Z,85.00
2023-05-12T02:47:02.931Z,85.00
2023-05-12T02:48:03.247Z,85.00
2023-05-12T02:49:02.828Z,84.00
2023-05-12T02:50:02.861Z,85.00
2023-05-12T02:51:03.000Z,86.00
2023-05-12T02:52:03.079Z,86.00
2023-05-12T02:53:03.042Z,86.00
2023-05-12T02:54:02.983Z,86.00
2023-05-12T02:55:03.496Z,85.00
2023-05-12T02:56:03.442Z,85.00
2023-05-12T02:57:03.187Z,85.00
2023-05-12T02:58:03.205Z,86.00
2023-05-12T02:59:03.184Z,86.00
2023-05-12T03:00:03.390Z,86.00
2023-05-12T03:01:10.885Z,86.00
2023-05-12T03:02:03.422Z,86.00
2023-05-12T03:03:03.464Z,86.00
2023-05-12T03:04:03.640Z,86.00
2023-05-12T03:05:03.710Z,86.00
2023-05-12T03:06:03.338Z,86.00
2023-05-12T03:07:03.408Z,86.00
2023-05-12T03:08:02.458Z,86.00
2023-05-12T03:09:02.380Z,85.00
2023-05-12T03:10:02.318Z,85.00
2023-05-12T03:11:02.377Z,85.00
2023-05-12T03:12:02.269Z,86.00
2023-05-12T03:13:02.924Z,85.00
2023-05-12T03:14:02.914Z,85.00
2023-05-12T03:15:02.911Z,86.00
2023-05-12T03:16:02.727Z,86.00
2023-05-12T03:17:02.862Z,87.00
2023-05-12T03:18:02.782Z,86.00
2023-05-12T03:19:02.567Z,86.00
2023-05-12T03:20:02.769Z,86.00
2023-05-12T03:21:02.681Z,87.00
2023-05-12T03:22:02.655Z,87.00
2023-05-12T03:23:02.591Z,87.00
2023-05-12T03:24:02.431Z,86.00
2023-05-12T03:25:02.343Z,86.00
2023-05-12T03:26:03.026Z,86.00
2023-05-12T03:27:02.708Z,86.00
2023-05-12T03:28:02.719Z,86.00
2023-05-12T03:29:02.699Z,86.00
2023-05-12T03:30:02.721Z,86.00
2023-05-12T03:31:02.688Z,86.00
2023-05-12T03:32:02.640Z,87.00
2023-05-12T03:33:03.320Z,86.00
2023-05-12T03:34:03.382Z,86.00
2023-05-12T03:35:03.298Z,86.00
2023-05-12T03:36:03.361Z,86.00
2023-05-12T03:37:03.397Z,86.00
2023-05-12T03:38:03.326Z,86.00
2023-05-12T03:39:03.186Z,85.00
2023-05-12T03:40:03.303Z,85.00
2023-05-12T03:41:03.254Z,85.00
2023-05-12T03:42:03.135Z,85.00
2023-05-12T03:43:02.890Z,85.00
2023-05-12T03:44:02.903Z,85.00
2023-05-12T03:45:02.845Z,86.00
2023-05-12T03:46:02.765Z,85.00
2023-05-12T03:47:02.774Z,86.00
2023-05-12T03:48:03.485Z,86.00
2023-05-12T03:49:03.537Z,85.00
2023-05-12T03:50:03.618Z,85.00
2023-05-12T03:51:03.443Z,86.00
2023-05-12T03:52:03.427Z,86.00
2023-05-12T03:53:03.206Z,86.00
2023-05-12T03:54:03.300Z,85.00
2023-05-12T03:55:02.944Z,86.00
2023-05-12T03:56:02.947Z,86.00
2023-05-12T03:57:02.872Z,87.00
2023-05-12T03:58:03.643Z,87.00
2023-05-12T03:59:03.661Z,86.00
2023-05-12T04:00:03.693Z,87.00
2023-05-12T04:01:03.265Z,88.00
2023-05-12T04:02:03.851Z,88.00
2023-05-12T04:03:03.811Z,88.00
2023-05-12T04:04:03.726Z,88.00
2023-05-12T04:05:03.872Z,89.00
2023-05-12T04:06:03.355Z,89.00
2023-05-12T04:07:03.414Z,89.00
2023-05-12T04:08:03.175Z,89.00
2023-05-12T04:09:03.084Z,89.00
2023-05-12T04:10:03.197Z,89.00
2023-05-12T04:11:03.119Z,88.00
2023-05-12T04:12:03.116Z,89.00
2023-05-12T04:13:03.946Z,89.00
2023-05-12T04:14:03.663Z,89.00
2023-05-12T04:15:03.765Z,88.00
2023-05-12T04:16:03.797Z,88.00
2023-05-12T04:17:03.817Z,88.00
2023-05-12T04:18:03.273Z,89.00
2023-05-12T04:19:03.549Z,88.00
2023-05-12T04:20:03.333Z,88.00
2023-05-12T04:21:03.349Z,89.00
2023-05-12T04:22:03.391Z,89.00
2023-05-12T04:23:03.054Z,88.00
2023-05-12T04:24:02.989Z,88.00
2023-05-12T04:25:03.013Z,88.00
2023-05-12T04:26:02.924Z,88.00
2023-05-12T04:27:02.947Z,88.00
2023-05-12T04:28:03.507Z,88.00
2023-05-12T04:29:03.615Z,88.00
2023-05-12T04:30:03.606Z,88.00
2023-05-12T04:31:03.650Z,88.00
2023-05-12T04:32:03.417Z,88.00
2023-05-12T04:33:02.720Z,88.00
2023-05-12T04:34:02.737Z,88.00
2023-05-12T04:35:03.124Z,88.00
2023-05-12T04:36:03.127Z,88.00
2023-05-12T04:37:02.928Z,88.00
2023-05-12T04:38:03.631Z,88.00
2023-05-12T04:39:03.197Z,88.00
2023-05-12T04:40:03.324Z,88.00
2023-05-12T04:41:03.077Z,88.00
2023-05-12T04:42:03.424Z,87.00
2023-05-12T04:43:03.881Z,87.00
2023-05-12T04:44:03.347Z,88.00
2023-05-12T04:45:03.703Z,88.00
2023-05-12T04:46:03.760Z,88.00
2023-05-12T04:47:03.402Z,88.00
2023-05-12T04:48:03.517Z,88.00
2023-05-12T04:49:03.479Z,88.00
2023-05-12T04:50:04.106Z,88.00
2023-05-12T04:51:03.995Z,87.00
2023-05-12T04:52:03.804Z,87.00
2023-05-12T04:53:02.899Z,87.00
2023-05-12T04:54:03.013Z,88.00
2023-05-12T04:55:03.072Z,88.00
2023-05-12T04:56:03.113Z,88.00
2023-05-12T04:57:03.038Z,88.00
2023-05-12T04:58:03.084Z,89.00
2023-05-12T04:59:03.099Z,89.00
2023-05-12T05:00:03.717Z,88.00
2023-05-12T05:01:03.480Z,88.00
2023-05-12T05:02:03.394Z,88.00
2023-05-12T05:03:02.514Z,88.00
2023-05-12T05:04:02.427Z,88.00
2023-05-12T05:05:02.692Z,88.00
2023-05-12T05:06:02.801Z,88.00
2023-05-12T05:07:02.928Z,88.00
2023-05-12T05:08:02.784Z,88.00
2023-05-12T05:09:02.866Z,88.00
2023-05-12T05:10:02.827Z,88.00
2023-05-12T05:11:02.753Z,88.00
2023-05-12T05:12:02.759Z,88.00
2023-05-12T05:13:02.840Z,88.00
2023-05-12T05:14:03.195Z,88.00
2023-05-12T05:15:03.312Z,88.00
2023-05-12T05:16:02.962Z,88.00
2023-05-12T05:17:03.121Z,88.00
2023-05-12T05:18:02.600Z,88.00
2023-05-12T05:19:06.405Z,89.00
2023-05-12T05:20:07.246Z,88.00
2023-05-12T05:21:02.727Z,88.00
2023-05-12T05:22:02.496Z,88.00
2023-05-12T05:23:02.779Z,88.00
2023-05-12T05:24:02.652Z,88.00
2023-05-12T05:25:02.789Z,88.00
2023-05-12T05:26:02.886Z,88.00
2023-05-12T05:27:03.105Z,88.00
2023-05-12T05:28:03.596Z,88.00
2023-05-12T05:29:03.408Z,88.00
2023-05-12T05:30:03.482Z,87.00
2023-05-12T05:31:03.506Z,88.00
2023-05-12T05:32:03.412Z,88.00
2023-05-12T05:33:02.530Z,88.00
2023-05-12T05:34:02.632Z,88.00
2023-05-12T05:35:02.905Z,88.00
2023-05-12T05:36:02.614Z,88.00
2023-05-12T05:37:02.532Z,88.00
2023-05-12T05:38:02.546Z,89.00
2023-05-12T05:39:02.801Z,89.00
2023-05-12T05:40:02.571Z,89.00
2023-05-12T05:41:02.627Z,89.00
2023-05-12T05:42:02.685Z,89.00
2023-05-12T05:43:02.537Z,89.00
2023-05-12T05:44:02.498Z,89.00
2023-05-12T05:45:02.571Z,89.00
2023-05-12T05:46:02.502Z,89.00
2023-05-12T05:47:03.211Z,89.00
2023-05-12T05:48:03.184Z,90.00
2023-05-12T05:49:03.088Z,90.00
2023-05-12T05:50:03.153Z,90.00
2023-05-12T05:51:03.064Z,90.00
2023-05-12T05:52:02.959Z,90.00
2023-05-12T05:53:02.513Z,90.00
2023-05-12T05:54:02.467Z,90.00
2023-05-12T05:55:02.483Z,90.00
2023-05-12T05:56:02.442Z,90.00
2023-05-12T05:57:02.429Z,90.00
2023-05-12T05:58:03.244Z,90.00
2023-05-12T05:59:03.175Z,91.00
2023-05-12T06:00:03.420Z,91.00
2023-05-12T06:01:03.269Z,91.00
2023-05-12T06:02:03.310Z,91.00
2023-05-12T06:03:02.659Z,91.00
2023-05-12T06:04:02.734Z,91.00
2023-05-12T06:05:02.271Z,90.00
2023-05-12T06:06:02.230Z,91.00
2023-05-12T06:07:02.859Z,90.00
2023-05-12T06:08:02.522Z,91.00
2023-05-12T06:09:02.383Z,90.00
2023-05-12T06:10:02.396Z,89.00
2023-05-12T06:11:02.381Z,90.00
2023-05-12T06:12:02.434Z,90.00
2023-05-12T06:13:03.156Z,90.00
2023-05-12T06:14:03.156Z,90.00
2023-05-12T06:15:03.216Z,90.00
2023-05-12T06:16:03.250Z,90.00
2023-05-12T06:17:03.432Z,90.00
2023-05-12T06:18:03.237Z,90.00
2023-05-12T06:19:03.219Z,89.00
2023-05-12T06:20:03.361Z,89.00
2023-05-12T06:21:03.331Z,89.00
2023-05-12T06:22:03.150Z,89.00
2023-05-12T06:23:02.949Z,90.00
2023-05-12T06:24:02.804Z,89.00
2023-05-12T06:25:02.830Z,89.00
2023-05-12T06:26:02.816Z,89.00
2023-05-12T06:27:02.763Z,89.00
2023-05-12T06:28:03.458Z,90.00
2023-05-12T06:29:03.465Z,89.00
2023-05-12T06:30:03.423Z,89.00
2023-05-12T06:31:03.322Z,87.00
2023-05-12T06:32:03.378Z,87.00
2023-05-12T06:33:03.129Z,88.00
2023-05-12T06:34:03.232Z,88.00
2023-05-12T06:35:03.329Z,87.00
2023-05-12T06:36:03.180Z,88.00
2023-05-12T06:37:03.267Z,88.00
2023-05-12T06:38:02.779Z,88.00
2023-05-12T06:39:02.871Z,89.00
2023-05-12T06:40:02.976Z,88.00
2023-05-12T06:41:02.767Z,88.00
2023-05-12T06:42:02.710Z,87.00
2023-05-12T06:43:03.377Z,88.00
2023-05-12T06:44:03.182Z,88.00
2023-05-12T06:45:03.591Z,87.00
2023-05-12T06:46:03.543Z,87.00
2023-05-12T06:47:03.509Z,87.00
2023-05-12T06:48:03.513Z,87.00
2023-05-12T06:49:03.478Z,87.00
2023-05-12T06:50:03.485Z,87.00
2023-05-12T06:51:03.590Z,87.00
2023-05-12T06:52:03.489Z,88.00
2023-05-12T06:53:03.566Z,87.00
2023-05-12T06:54:03.449Z,87.00
2023-05-12T06:55:03.148Z,87.00
2023-05-12T06:56:03.700Z,87.00
2023-05-12T06:57:03.510Z,86.00
2023-05-12T06:58:03.131Z,84.00
2023-05-12T06:59:03.125Z,85.00
2023-05-12T07:00:03.144Z,85.00
2023-05-12T07:01:03.265Z,85.00
2023-05-12T07:02:03.422Z,85.00
2023-05-12T07:03:02.446Z,85.00
2023-05-12T07:04:02.634Z,85.00
2023-05-12T07:05:02.674Z,85.00
2023-05-12T07:06:02.652Z,86.00
2023-05-12T07:07:02.655Z,86.00
2023-05-12T07:08:03.204Z,86.00
2023-05-12T07:09:03.209Z,84.00
2023-05-12T07:10:03.207Z,83.00
2023-05-12T07:11:03.303Z,84.00
2023-05-12T07:12:03.333Z,83.00
2023-05-12T07:13:02.739Z,83.00
2023-05-12T07:14:02.603Z,84.00
2023-05-12T07:15:02.628Z,84.00
2023-05-12T07:16:02.736Z,82.00
2023-05-12T07:17:02.581Z,83.00
2023-05-12T07:18:03.268Z,83.00
2023-05-12T07:19:03.102Z,82.00
2023-05-12T07:20:03.204Z,82.00
2023-05-12T07:21:03.030Z,82.00
2023-05-12T07:22:03.097Z,82.00
2023-05-12T07:23:02.789Z,82.00
2023-05-12T07:24:02.615Z,82.00
2023-05-12T07:25:02.648Z,82.00
2023-05-12T07:26:02.687Z,80.00
2023-05-12T07:27:02.614Z,80.00
2023-05-12T07:28:02.741Z,80.00
2023-05-12T07:29:02.775Z,81.00
2023-05-12T07:30:02.784Z,82.00
2023-05-12T07:31:03.487Z,82.00
2023-05-12T07:32:03.340Z,82.00
2023-05-12T07:33:02.837Z,83.00
2023-05-12T07:34:02.669Z,83.00
2023-05-12T07:35:02.692Z,80.00
2023-05-12T07:36:02.626Z,77.00
2023-05-12T07:37:02.523Z,76.00
2023-05-12T07:38:02.587Z,77.00
2023-05-12T07:39:02.583Z,75.00
2023-05-12T07:40:02.680Z,75.00
2023-05-12T07:41:02.798Z,77.00
2023-05-12T07:42:02.866Z,77.00
2023-05-12T07:43:02.754Z,77.00
2023-05-12T07:44:03.342Z,77.00
2023-05-12T07:45:03.150Z,77.00
2023-05-12T07:46:03.142Z,77.00
2023-05-12T07:47:02.757Z,74.00
2023-05-12T07:48:02.592Z,74.00
2023-05-12T07:49:02.689Z,75.00
2023-05-12T07:50:02.786Z,74.00
2023-05-12T07:51:02.736Z,74.00
2023-05-12T07:52:02.831Z,74.00
2023-05-12T07:53:03.197Z,74.00
2023-05-12T07:54:03.250Z,74.00
2023-05-12T07:55:03.111Z,74.00
2023-05-12T07:56:03.388Z,73.00
2023-05-12T07:57:03.245Z,74.00
2023-05-12T07:58:02.308Z,74.00
2023-05-12T07:59:02.373Z,74.00
2023-05-12T08:00:02.416Z,73.00
2023-05-12T08:01:02.856Z,73.00
2023-05-12T08:02:02.567Z,75.00
2023-05-12T08:03:03.158Z,76.00
2023-05-12T08:04:02.968Z,76.00
2023-05-12T08:05:02.834Z,76.00
2023-05-12T08:06:02.952Z,75.00
2023-05-12T08:07:02.966Z,74.00
2023-05-12T08:08:02.957Z,72.00
2023-05-12T08:09:03.156Z,71.00
2023-05-12T08:10:03.292Z,72.00
2023-05-12T08:11:03.318Z,72.00
2023-05-12T08:12:03.354Z,73.00
2023-05-12T08:13:02.494Z,73.00
2023-05-12T08:14:02.464Z,73.00
2023-05-12T08:15:02.542Z,71.00
2023-05-12T08:16:02.965Z,69.00
2023-05-12T08:17:02.832Z,70.00
2023-05-12T08:18:02.854Z,70.00
2023-05-12T08:19:02.788Z,70.00
2023-05-12T08:20:02.579Z,70.00
2023-05-12T08:21:02.669Z,70.00
2023-05-12T08:22:02.844Z,72.00
2023-05-12T08:23:03.492Z,66.00
2023-05-12T08:24:03.250Z,67.00
2023-05-12T08:25:03.285Z,68.00
2023-05-12T08:26:03.293Z,67.00
2023-05-12T08:27:03.363Z,67.00
2023-05-12T08:28:02.690Z,68.00
2023-05-12T08:29:02.707Z,68.00
2023-05-12T08:30:02.242Z,66.00
2023-05-12T08:31:04.708Z,67.00
2023-05-12T08:32:02.280Z,66.00
2023-05-12T08:33:03.153Z,66.00
2023-05-12T08:34:10.392Z,67.00
2023-05-12T08:35:03.188Z,68.00
2023-05-12T08:36:03.163Z,66.00
2023-05-12T08:37:03.175Z,66.00
2023-05-12T08:38:03.323Z,65.00
2023-05-12T08:39:03.056Z,64.00
2023-05-12T08:40:03.619Z,66.00
2023-05-12T08:41:03.367Z,66.00
2023-05-12T08:42:03.454Z,67.00
2023-05-12T08:43:02.586Z,66.00
2023-05-12T08:44:02.712Z,65.00
2023-05-12T08:45:02.733Z,66.00
2023-05-12T08:46:02.320Z,66.00
2023-05-12T08:47:02.501Z,65.00
2023-05-12T08:48:03.528Z,66.00
2023-05-12T08:49:03.396Z,67.00
2023-05-12T08:50:03.281Z,66.00
2023-05-12T08:51:03.375Z,65.00
2023-05-12T08:52:03.112Z,66.00
2023-05-12T08:53:02.528Z,65.00
2023-05-12T08:54:03.071Z,61.00
2023-05-12T08:55:18.281Z,62.00
2023-05-12T08:58:03.411Z,62.00
2023-05-12T08:59:03.408Z,61.00
2023-05-12T09:00:03.419Z,62.00
2023-05-12T09:01:03.486Z,61.00
2023-05-12T09:02:03.437Z,63.00
2023-05-12T09:03:03.482Z,63.00
2023-05-12T09:04:03.606Z,60.00
2023-05-12T09:05:03.551Z,62.00
2023-05-12T09:06:03.614Z,59.00
2023-05-12T09:07:03.512Z,58.00
2023-05-12T09:08:02.890Z,59.00
2023-05-12T09:09:03.069Z,59.00
2023-05-12T09:10:03.114Z,59.00
2023-05-12T09:11:02.879Z,60.00
2023-05-12T09:12:02.922Z,61.00
2023-05-12T09:13:03.106Z,60.00
2023-05-12T09:14:02.766Z,59.00
2023-05-12T09:15:02.892Z,59.00
2023-05-12T09:16:03.348Z,59.00
2023-05-12T09:17:03.093Z,58.00
2023-05-12T09:18:02.807Z,58.00
2023-05-12T09:19:04.621Z,57.00
2023-05-12T09:20:02.801Z,57.00
2023-05-12T09:21:02.534Z,59.00
2023-05-12T09:22:02.659Z,59.00
2023-05-12T09:23:03.428Z,58.00
2023-05-12T09:24:03.462Z,59.00
2023-05-12T09:25:03.402Z,60.00
2023-05-12T09:26:03.493Z,57.00
2023-05-12T09:27:03.510Z,55.00
2023-05-12T09:28:03.385Z,58.00
2023-05-12T09:29:03.294Z,59.00
2023-05-12T09:30:03.302Z,57.00
2023-05-12T09:31:03.283Z,58.00
2023-05-12T09:32:03.725Z,57.00
2023-05-12T09:33:03.722Z,57.00
2023-05-12T09:34:03.803Z,57.00
2023-05-12T09:35:03.459Z,56.00
2023-05-12T09:36:03.513Z,57.00
2023-05-12T09:37:03.429Z,56.00
2023-05-12T09:38:03.207Z,56.00
2023-05-12T09:39:02.706Z,57.00
2023-05-12T09:40:03.366Z,56.00
2023-05-12T09:41:03.186Z,55.00
2023-05-12T09:42:03.339Z,56.00
2023-05-12T09:43:03.832Z,55.00
2023-05-12T09:44:03.875Z,57.00
2023-05-12T09:45:03.664Z,54.00
2023-05-12T09:46:03.663Z,53.00
2023-05-12T09:47:03.911Z,53.00
2023-05-12T09:48:03.456Z,55.00
2023-05-12T09:49:03.052Z,54.00
2023-05-12T09:50:03.166Z,55.00
2023-05-12T09:51:03.179Z,52.00
2023-05-12T09:52:03.070Z,52.00
2023-05-12T09:53:03.895Z,54.00
2023-05-12T09:54:04.613Z,54.00
2023-05-12T09:55:03.520Z,54.00
2023-05-12T09:56:03.611Z,56.00
2023-05-12T09:57:03.602Z,55.00
2023-05-12T09:58:03.161Z,55.00
2023-05-12T09:59:02.906Z,54.00
2023-05-12T10:00:02.882Z,54.00
2023-05-12T10:02:03.032Z,52.00
2023-05-12T10:03:02.267Z,51.00
2023-05-12T10:04:02.304Z,51.00
2023-05-12T10:05:02.554Z,52.00
2023-05-12T10:06:02.583Z,53.00
2023-05-12T10:07:02.781Z,52.00
2023-05-12T10:08:01.728Z,52.00
2023-05-12T10:09:01.713Z,52.00
2023-05-12T10:10:01.661Z,52.00
2023-05-12T10:11:02.037Z,51.00
2023-05-12T10:12:02.134Z,52.00
2023-05-12T10:13:02.099Z,54.00
2023-05-12T10:14:02.482Z,54.00
2023-05-12T10:15:02.654Z,52.00
2023-05-12T10:16:02.371Z,51.00
2023-05-12T10:17:02.484Z,53.00
2023-05-12T10:18:02.599Z,53.00
2023-05-12T10:19:02.689Z,53.00
2023-05-12T10:20:02.863Z,53.00
2023-05-12T10:21:02.955Z,52.00
2023-05-12T10:22:02.930Z,51.00
2023-05-12T10:23:01.982Z,50.00
2023-05-12T10:24:02.062Z,48.00
2023-05-12T10:25:01.992Z,49.00
2023-05-12T10:26:02.126Z,50.00
2023-05-12T10:27:02.282Z,49.00
2023-05-12T10:28:02.362Z,51.00
2023-05-12T10:29:02.441Z,52.00
2023-05-12T10:30:02.611Z,47.00
2023-05-12T10:31:02.522Z,47.00
2023-05-12T10:32:02.606Z,49.00
2023-05-12T10:33:02.749Z,48.00
2023-05-12T10:34:02.912Z,47.00
2023-05-12T10:35:02.917Z,45.00
2023-05-12T10:36:02.644Z,46.00
2023-05-12T10:37:02.738Z,48.00
2023-05-12T10:38:02.874Z,48.00
2023-05-12T10:39:02.910Z,46.00
2023-05-12T10:40:02.968Z,45.00
2023-05-12T10:41:03.093Z,47.00
2023-05-12T10:42:03.065Z,46.00
2023-05-12T10:43:02.071Z,46.00
2023-05-12T10:44:02.003Z,47.00
2023-05-12T10:45:02.014Z,45.00
2023-05-12T10:46:02.064Z,46.00
2023-05-12T10:47:02.174Z,46.00
2023-05-12T10:48:02.758Z,46.00
2023-05-12T10:49:03.175Z,46.00
2023-05-12T10:50:03.068Z,45.00
2023-05-12T10:51:03.110Z,46.00
2023-05-12T10:52:02.886Z,47.00
2023-05-12T10:53:02.144Z,46.00
2023-05-12T10:54:02.172Z,44.00
2023-05-12T10:55:02.139Z,44.00
2023-05-12T10:56:02.829Z,44.00
2023-05-12T10:57:02.428Z,45.00
2023-05-12T10:58:02.519Z,45.00
2023-05-12T10:59:02.522Z,43.00
2023-05-12T11:00:03.791Z,45.00
2023-05-12T11:01:03.137Z,44.00
2023-05-12T11:02:03.806Z,44.00
2023-05-12T11:03:09.687Z,44.00
2023-05-12T11:04:03.091Z,44.00
2023-05-12T11:05:04.221Z,45.00
2023-05-12T11:06:03.347Z,46.00
2023-05-12T11:07:03.018Z,46.00
2023-05-12T11:08:04.554Z,45.00
2023-05-12T11:09:03.435Z,45.00
2023-05-12T11:10:04.736Z,46.00
2023-05-12T11:11:03.481Z,45.00
2023-05-12T11:12:04.802Z,46.00
2023-05-12T11:13:02.782Z,47.00
2023-05-12T11:14:02.926Z,45.00
2023-05-12T11:15:03.396Z,45.00
2023-05-12T11:16:03.394Z,45.00
2023-05-12T11:17:03.164Z,46.00
2023-05-12T11:18:03.409Z,46.00
2023-05-12T11:19:03.537Z,46.00
2023-05-12T11:20:03.388Z,44.00
2023-05-12T11:21:03.385Z,44.00
2023-05-12T11:22:03.383Z,44.00
2023-05-12T11:23:03.350Z,45.00
2023-05-12T11:24:03.444Z,46.00
2023-05-12T11:25:03.419Z,44.00
2023-05-12T11:26:03.562Z,45.00
2023-05-12T11:27:03.588Z,45.00
2023-05-12T11:28:03.012Z,46.00
2023-05-12T11:29:03.032Z,45.00
2023-05-12T11:30:03.058Z,45.00
2023-05-12T11:31:03.124Z,45.00
2023-05-12T11:32:03.157Z,45.00
2023-05-12T11:33:03.507Z,44.00
2023-05-12T11:34:11.826Z,45.00
2023-05-12T11:35:03.248Z,45.00
2023-05-12T11:36:03.149Z,45.00
2023-05-12T11:37:03.119Z,45.00
2023-05-12T11:38:03.776Z,44.00
2023-05-12T11:39:03.451Z,43.00
2023-05-12T11:40:03.538Z,45.00
2023-05-12T11:41:04.095Z,44.00
2023-05-12T11:42:12.145Z,44.00
2023-05-12T11:43:02.922Z,43.00
2023-05-12T11:44:02.947Z,43.00
2023-05-12T11:45:02.919Z,44.00
2023-05-12T11:46:03.098Z,43.00
2023-05-12T11:47:02.988Z,44.00
2023-05-12T11:48:03.128Z,45.00
2023-05-12T11:49:03.235Z,43.00
2023-05-12T11:50:02.910Z,44.00
2023-05-12T11:51:02.901Z,44.00
2023-05-12T11:52:03.356Z,43.00
2023-05-12T11:53:03.616Z,42.00
2023-05-12T11:54:03.711Z,42.00
2023-05-12T11:55:03.770Z,43.00
2023-05-12T11:56:03.855Z,42.00
2023-05-12T11:57:03.650Z,42.00
2023-05-12T11:58:03.741Z,42.00
2023-05-12T11:59:03.588Z,43.00
2023-05-12T12:00:03.528Z,44.00
2023-05-12T12:01:03.519Z,44.00
2023-05-12T12:02:03.607Z,43.00
2023-05-12T12:03:03.332Z,44.00
2023-05-12T12:04:03.214Z,43.00
2023-05-12T12:05:03.543Z,43.00
2023-05-12T12:06:03.340Z,43.00
2023-05-12T12:07:03.277Z,43.00
2023-05-12T12:08:03.338Z,42.00
2023-05-12T12:09:03.374Z,42.00
2023-05-12T12:10:03.597Z,43.00
2023-05-12T12:11:03.911Z,43.00
2023-05-12T12:12:03.587Z,42.00
2023-05-12T12:13:03.099Z,44.00
2023-05-12T12:14:03.144Z,44.00
2023-05-12T12:15:03.114Z,44.00
2023-05-12T12:16:03.119Z,44.00
2023-05-12T12:17:03.171Z,44.00
2023-05-12T12:18:03.864Z,45.00
2023-05-12T12:19:03.790Z,44.00
2023-05-12T12:20:03.868Z,45.00
2023-05-12T12:21:03.771Z,44.00
2023-05-12T12:22:03.824Z,43.00
2023-05-12T12:23:03.032Z,44.00
2023-05-12T12:24:03.089Z,44.00
2023-05-12T12:25:02.846Z,43.00
2023-05-12T12:26:02.831Z,43.00
2023-05-12T12:27:02.915Z,44.00
2023-05-12T12:28:03.729Z,45.00
2023-05-12T12:29:03.697Z,43.00
2023-05-12T12:30:03.774Z,44.00
2023-05-12T12:31:03.508Z,45.00
2023-05-12T12:32:03.216Z,45.00
2023-05-12T12:33:03.178Z,45.00
2023-05-12T12:34:03.073Z,45.00
2023-05-12T12:35:03.113Z,44.00
2023-05-12T12:36:02.980Z,44.00
2023-05-12T12:37:02.967Z,44.00
2023-05-12T12:38:03.903Z,45.00
2023-05-12T12:39:03.703Z,45.00
2023-05-12T12:40:03.391Z,44.00
2023-05-12T12:41:03.379Z,44.00
2023-05-12T12:42:03.440Z,44.00
2023-05-12T12:43:03.126Z,45.00
2023-05-12T12:44:03.183Z,42.00
2023-05-12T12:45:03.163Z,42.00
2023-05-12T12:46:02.942Z,41.00
2023-05-12T12:47:03.056Z,41.00
2023-05-12T12:48:03.538Z,41.00
2023-05-12T12:49:03.311Z,42.00
2023-05-12T12:50:03.217Z,41.00
2023-05-12T12:51:03.239Z,42.00
2023-05-12T12:52:03.433Z,41.00
2023-05-12T12:53:03.600Z,42.00
2023-05-12T12:54:03.047Z,43.00
2023-05-12T12:55:03.236Z,43.00